Time;durP1;ratioP1;P1;durP2;ratioP2;P2;SDS_P1;SDS_P2;PMS_P1;PMS_P2;Temp;Humidity;BMP_temperature;BMP_pressure;BME280_temperature;BME280_humidity;BME280_pressure;Samples;Min_cycle;Max_cycle;Signal;HPM_P1;HPM_P2
2021/12/14 00:00:37;;;;;;;4.37;0.90;;;8.30;99.90;;;;;;4878031;29;20667;-84
2021/12/14 00:03:04;;;;;;;1.30;0.83;;;8.30;99.90;;;;;;4873438;29;20186;-84
2021/12/14 00:05:31;;;;;;;0.87;0.87;;;8.30;99.90;;;;;;4874212;29;20214;-84
2021/12/14 00:07:58;;;;;;;1.83;0.80;;;8.20;99.90;;;;;;4876634;29;20181;-84
2021/12/14 00:13:07;;;;;;;0.57;0.57;;;8.30;99.90;;;;;;4877435;29;20181;-85
2021/12/14 00:15:33;;;;;;;0.87;0.60;;;8.30;99.90;;;;;;4873788;29;20196;-84
2021/12/14 00:18:05;;;;;;;0.80;0.80;;;8.30;99.90;;;;;;4874483;29;20601;-84
2021/12/14 00:20:36;;;;;;;0.40;0.40;;;8.20;99.90;;;;;;4870190;29;20730;-84
2021/12/14 00:25:51;;;;;;;0.97;0.83;;;8.50;99.90;;;;;;4876990;29;20175;-84
2021/12/14 00:28:30;;;;;;;0.80;0.80;;;8.60;99.90;;;;;;4872122;29;20211;-84
2021/12/14 00:30:58;;;;;;;0.50;0.50;;;8.70;99.90;;;;;;4868965;29;20187;-84
2021/12/14 00:33:31;;;;;;;1.80;1.00;;;8.80;99.90;;;;;;4874115;29;20184;-85
2021/12/14 00:35:58;;;;;;;0.67;0.40;;;8.80;99.90;;;;;;4873087;29;20188;-84
2021/12/14 00:38:25;;;;;;;0.60;0.57;;;8.70;99.90;;;;;;4886540;29;20213;-84
2021/12/14 00:41:09;;;;;;;1.13;1.03;;;8.70;99.90;;;;;;4878870;29;20189;-84
2021/12/14 00:43:35;;;;;;;0.87;0.57;;;8.70;99.90;;;;;;4873723;29;20610;-85
2021/12/14 00:46:01;;;;;;;0.27;0.27;;;8.60;99.90;;;;;;4884471;29;20270;-85
2021/12/14 00:48:26;;;;;;;1.00;0.60;;;8.30;99.90;;;;;;4885401;29;20215;-84
2021/12/14 00:50:57;;;;;;;0.60;0.60;;;8.30;99.90;;;;;;4877569;29;20188;-84
2021/12/14 00:53:22;;;;;;;1.03;0.80;;;8.30;99.90;;;;;;4875255;29;20198;-84
2021/12/14 00:55:51;;;;;;;0.93;0.87;;;8.40;99.90;;;;;;4871607;29;20184;-84
2021/12/14 00:58:17;;;;;;;0.73;0.50;;;8.50;99.90;;;;;;4879321;29;20688;-84
2021/12/14 01:00:50;;;;;;;0.10;0.10;;;8.50;99.90;;;;;;4865316;29;20180;-84
2021/12/14 01:03:15;;;;;;;1.17;0.53;;;8.40;99.90;;;;;;4882938;29;20179;-84
2021/12/14 01:05:45;;;;;;;0.70;0.70;;;8.60;99.90;;;;;;4872155;29;20223;-84
2021/12/14 01:08:15;;;;;;;0.70;0.70;;;8.70;99.90;;;;;;4874729;29;20213;-84
2021/12/14 01:10:50;;;;;;;1.13;1.03;;;8.50;99.90;;;;;;4874182;29;20208;-84
2021/12/14 01:13:19;;;;;;;0.97;0.90;;;8.50;99.90;;;;;;4876855;29;20183;-84
2021/12/14 01:15:59;;;;;;;0.50;0.40;;;8.40;99.90;;;;;;4876925;29;20240;-84
2021/12/14 01:18:46;;;;;;;0.30;0.30;;;8.30;99.90;;;;;;4875758;29;20582;-85
2021/12/14 01:21:41;;;;;;;0.50;0.50;;;8.20;99.90;;;;;;4875817;29;20263;-84
2021/12/14 01:27:09;;;;;;;0.83;0.47;;;8.10;99.90;;;;;;4863311;29;20551;-84
2021/12/14 01:29:36;;;;;;;0.47;0.47;;;8.10;99.90;;;;;;4880337;29;20204;-85
2021/12/14 01:32:02;;;;;;;1.17;1.17;;;8.00;99.90;;;;;;4887887;29;20266;-84
2021/12/14 01:34:31;;;;;;;0.63;0.63;;;8.00;99.90;;;;;;4874160;29;20184;-84
2021/12/14 01:37:05;;;;;;;0.40;0.30;;;8.00;99.90;;;;;;4881139;29;20228;-85
2021/12/14 01:42:20;;;;;;;1.13;0.53;;;8.20;99.90;;;;;;4879106;29;20184;-84
2021/12/14 01:45:00;;;;;;;0.60;0.60;;;8.20;99.90;;;;;;4880150;29;20332;-84
2021/12/14 01:47:48;;;;;;;0.63;0.63;;;8.30;99.90;;;;;;4872746;29;20580;-84
2021/12/14 01:50:26;;;;;;;0.27;0.27;;;8.30;99.90;;;;;;4887876;29;20227;-84
2021/12/14 01:52:53;;;;;;;0.57;0.57;;;8.30;99.90;;;;;;4879836;29;20660;-84
2021/12/14 01:55:22;;;;;;;0.87;0.83;;;8.30;99.90;;;;;;4875102;29;20185;-84
2021/12/14 01:57:48;;;;;;;0.77;0.23;;;8.30;99.90;;;;;;4878063;29;20254;-84
2021/12/14 02:00:33;;;;;;;1.13;1.03;;;8.30;99.90;;;;;;4880854;29;20592;-84
2021/12/14 02:03:01;;;;;;;1.43;0.97;;;8.20;99.90;;;;;;4877544;29;20234;-84
2021/12/14 02:05:28;;;;;;;1.13;1.00;;;8.10;99.90;;;;;;4880227;29;20650;-83
2021/12/14 02:07:57;;;;;;;0.93;0.50;;;8.10;99.90;;;;;;4889753;29;20188;-84
2021/12/14 02:10:30;;;;;;;0.37;0.37;;;8.10;99.90;;;;;;4879511;29;20208;-84
2021/12/14 02:12:57;;;;;;;0.43;0.43;;;8.10;99.90;;;;;;4878868;29;20183;-84
2021/12/14 02:15:27;;;;;;;0.27;0.27;;;8.20;99.90;;;;;;4876215;29;20185;-84
2021/12/14 02:17:55;;;;;;;0.77;0.77;;;8.20;99.90;;;;;;4877345;29;20210;-84
2021/12/14 02:20:29;;;;;;;0.63;0.60;;;8.10;99.90;;;;;;4883247;29;20605;-84
2021/12/14 02:22:55;;;;;;;1.13;1.07;;;8.00;99.90;;;;;;4879588;29;20186;-84
2021/12/14 02:25:21;;;;;;;1.13;1.03;;;8.00;99.90;;;;;;4880800;29;20196;-84
2021/12/14 02:27:50;;;;;;;0.40;0.40;;;8.10;99.90;;;;;;4870131;29;20180;-84
2021/12/14 02:30:21;;;;;;;0.87;0.87;;;8.20;99.90;;;;;;4873569;29;20187;-84
2021/12/14 02:32:47;;;;;;;0.30;0.27;;;8.30;99.90;;;;;;4870182;29;20181;-84
2021/12/14 02:35:17;;;;;;;1.00;0.90;;;8.50;99.90;;;;;;4883454;29;20189;-84
2021/12/14 02:38:05;;;;;;;0.30;0.30;;;8.60;99.90;;;;;;4876971;29;20252;-85
2021/12/14 02:40:53;;;;;;;0.73;0.40;;;8.70;99.90;;;;;;4879377;29;20687;-85
2021/12/14 02:43:34;;;;;;;0.93;0.80;;;8.80;99.90;;;;;;4874687;29;20183;-85
2021/12/14 02:46:05;;;;;;;1.17;0.50;;;8.90;99.90;;;;;;4871671;29;20205;-84
2021/12/14 02:48:31;;;;;;;0.77;0.60;;;8.90;99.90;;;;;;4876017;29;20688;-84
2021/12/14 02:51:04;;;;;;;0.87;0.83;;;8.90;99.90;;;;;;4879369;29;20195;-84
2021/12/14 02:53:31;;;;;;;0.40;0.40;;;8.90;99.90;;;;;;4890150;29;20186;-85
2021/12/14 02:55:56;;;;;;;0.40;0.40;;;8.90;99.90;;;;;;4876760;29;20184;-84
2021/12/14 02:58:22;;;;;;;1.83;1.03;;;8.90;99.90;;;;;;4875719;29;20217;-84
2021/12/14 03:00:51;;;;;;;1.73;1.03;;;8.90;99.90;;;;;;4877238;29;20179;-85
2021/12/14 03:03:18;;;;;;;0.53;0.53;;;8.90;99.90;;;;;;4880234;29;20234;-84
2021/12/14 03:05:48;;;;;;;0.37;0.37;;;8.90;99.90;;;;;;4874625;29;20285;-84
2021/12/14 03:08:18;;;;;;;0.87;0.83;;;9.00;99.90;;;;;;4876894;29;20215;-84
2021/12/14 03:13:24;;;;;;;0.70;0.70;;;9.00;99.90;;;;;;4871305;29;20186;-84
2021/12/14 03:15:53;;;;;;;3.80;1.13;;;9.00;99.90;;;;;;4889739;29;20189;-84
2021/12/14 03:18:28;;;;;;;0.70;0.70;;;8.70;99.90;;;;;;4872555;29;20259;-84
2021/12/14 03:21:14;;;;;;;0.80;0.80;;;8.50;99.90;;;;;;4881906;29;20347;-84
2021/12/14 03:23:56;;;;;;;0.93;0.93;;;8.60;99.90;;;;;;4878024;29;20274;-84
2021/12/14 03:26:26;;;;;;;0.47;0.30;;;8.70;99.90;;;;;;4874183;29;20180;-84
2021/12/14 03:28:56;;;;;;;0.40;0.40;;;8.80;99.90;;;;;;4874342;29;20211;-84
2021/12/14 03:31:32;;;;;;;0.87;0.70;;;8.80;99.90;;;;;;4878514;29;20263;-84
2021/12/14 03:34:02;;;;;;;0.40;0.40;;;8.90;99.90;;;;;;4879938;29;20247;-84
2021/12/14 03:36:33;;;;;;;1.23;1.20;;;8.80;99.90;;;;;;4872242;29;20191;-84
2021/12/14 03:39:16;;;;;;;0.70;0.70;;;8.90;99.90;;;;;;4871032;29;20208;-84
2021/12/14 03:41:49;;;;;;;0.70;0.70;;;8.90;99.90;;;;;;4875541;29;20198;-84
2021/12/14 03:44:23;;;;;;;0.63;0.63;;;8.60;99.90;;;;;;4879740;29;20186;-84
2021/12/14 03:47:17;;;;;;;1.20;0.63;;;8.50;99.90;;;;;;4879165;29;20186;-84
2021/12/14 03:49:56;;;;;;;0.30;0.30;;;8.60;99.90;;;;;;4877438;29;20204;-84
2021/12/14 03:52:26;;;;;;;5.37;1.10;;;8.70;99.90;;;;;;4873595;29;20646;-84
2021/12/14 03:54:51;;;;;;;0.83;0.83;;;8.80;99.90;;;;;;4864763;29;20190;-84
2021/12/14 03:57:17;;;;;;;0.60;0.60;;;8.80;99.90;;;;;;4878899;29;20218;-84
2021/12/14 03:59:44;;;;;;;0.40;0.40;;;8.80;99.90;;;;;;4872774;29;20195;-84
2021/12/14 04:02:12;;;;;;;0.73;0.70;;;8.70;99.90;;;;;;4870779;29;20221;-85
2021/12/14 04:04:47;;;;;;;1.23;0.57;;;8.70;99.90;;;;;;4875768;29;20176;-84
2021/12/14 04:07:14;;;;;;;1.00;0.70;;;8.70;99.90;;;;;;4879702;29;20563;-84
2021/12/14 04:09:41;;;;;;;1.17;0.63;;;8.50;99.90;;;;;;4877544;29;20224;-85
2021/12/14 04:12:10;;;;;;;2.57;0.93;;;8.40;99.90;;;;;;4879417;29;20241;-84
2021/12/14 04:14:42;;;;;;;2.30;0.87;;;8.40;99.90;;;;;;4878292;29;20245;-84
2021/12/14 04:17:09;;;;;;;0.87;0.80;;;8.50;99.90;;;;;;4885734;29;20192;-84
2021/12/14 04:19:36;;;;;;;0.67;0.67;;;8.60;99.90;;;;;;4874967;29;20217;-84
2021/12/14 04:22:05;;;;;;;1.20;0.83;;;8.70;99.90;;;;;;4878253;29;20182;-84
2021/12/14 04:24:37;;;;;;;0.53;0.53;;;8.70;99.90;;;;;;4888942;29;20192;-84
2021/12/14 04:27:06;;;;;;;4.03;0.60;;;8.70;99.90;;;;;;4870014;29;20185;-85
2021/12/14 04:29:33;;;;;;;0.63;0.63;;;8.70;99.90;;;;;;4872382;29;20700;-84
2021/12/14 04:31:59;;;;;;;0.73;0.60;;;8.50;99.90;;;;;;4877775;29;20204;-84
2021/12/14 04:34:24;;;;;;;0.37;0.37;;;8.60;99.90;;;;;;4882245;29;20176;-85
2021/12/14 04:36:52;;;;;;;0.43;0.43;;;8.70;99.90;;;;;;4871002;29;20182;-85
2021/12/14 04:53:10;;;;;;;0.30;0.30;;;8.60;99.90;;;;;;4869324;29;20227;-84
2021/12/14 04:55:41;;;;;;;0.30;0.30;;;8.70;99.90;;;;;;4876290;29;20191;-84
2021/12/14 04:58:07;;;;;;;0.50;0.50;;;8.70;99.90;;;;;;4885131;29;20201;-85
2021/12/14 05:00:38;;;;;;;0.60;0.60;;;8.70;99.90;;;;;;4870362;29;20201;-84
2021/12/14 05:03:13;;;;;;;1.53;0.47;;;8.70;99.90;;;;;;4874950;29;20186;-84
2021/12/14 05:05:46;;;;;;;0.93;0.60;;;8.70;99.90;;;;;;4881318;29;20186;-84
2021/12/14 05:10:55;;;;;;;3.13;0.33;;;8.70;99.90;;;;;;4880430;29;20208;-85
2021/12/14 05:13:26;;;;;;;1.17;1.07;;;8.40;99.90;;;;;;4870549;29;20206;-84
2021/12/14 05:15:52;;;;;;;1.47;1.37;;;8.30;99.90;;;;;;4879972;29;20277;-84
2021/12/14 05:18:17;;;;;;;0.47;0.47;;;8.10;99.90;;;;;;4879125;29;20307;-85
2021/12/14 05:20:45;;;;;;;1.37;0.93;;;8.10;99.90;;;;;;4870976;29;20283;-85
2021/12/14 05:23:18;;;;;;;0.77;0.70;;;8.20;99.90;;;;;;4872047;29;20254;-85
2021/12/14 05:25:43;;;;;;;2.00;0.90;;;8.30;99.90;;;;;;4879347;29;20664;-84
2021/12/14 05:28:14;;;;;;;0.67;0.67;;;8.40;99.90;;;;;;4875108;29;20306;-85
2021/12/14 05:30:43;;;;;;;1.03;0.60;;;8.50;99.90;;;;;;4877438;29;20650;-85
2021/12/14 05:33:17;;;;;;;0.43;0.43;;;8.50;99.90;;;;;;4877327;29;20184;-84
2021/12/14 05:35:46;;;;;;;1.73;0.77;;;8.50;99.90;;;;;;4876367;29;20193;-84
2021/12/14 05:38:26;;;;;;;0.67;0.67;;;8.30;99.90;;;;;;4880920;29;20228;-85
2021/12/14 05:43:25;;;;;;;1.83;1.17;;;8.30;99.90;;;;;;4868952;29;20636;-84
2021/12/14 05:45:54;;;;;;;1.17;1.07;;;8.10;99.90;;;;;;4878443;29;20227;-84
2021/12/14 05:48:27;;;;;;;1.33;0.80;;;8.20;99.90;;;;;;4881804;29;20551;-84
2021/12/14 05:50:56;;;;;;;0.90;0.90;;;8.40;99.90;;;;;;4879354;29;20286;-84
2021/12/14 05:53:27;;;;;;;1.77;1.63;;;8.50;99.90;;;;;;4882171;29;20278;-84
2021/12/14 05:55:53;;;;;;;1.50;1.40;;;8.60;99.90;;;;;;4881900;29;20205;-84
2021/12/14 05:58:21;;;;;;;1.00;1.00;;;8.60;99.90;;;;;;4896799;29;20230;-84
2021/12/14 06:01:01;;;;;;;1.20;1.03;;;8.50;99.90;;;;;;4876537;29;20645;-84
2021/12/14 06:03:41;;;;;;;0.80;0.80;;;8.50;99.90;;;;;;4879496;29;20642;-84
2021/12/14 06:06:14;;;;;;;0.80;0.80;;;8.40;99.90;;;;;;4873674;29;20657;-84
2021/12/14 06:08:40;;;;;;;1.10;0.87;;;8.40;99.90;;;;;;4881245;29;20219;-84
2021/12/14 06:11:06;;;;;;;1.30;1.13;;;8.30;99.90;;;;;;4879793;29;20209;-84
2021/12/14 06:13:41;;;;;;;1.93;1.23;;;8.50;99.90;;;;;;4876410;29;20201;-84
2021/12/14 06:16:19;;;;;;;0.87;0.87;;;8.60;99.90;;;;;;4878003;29;20270;-85
2021/12/14 06:18:45;;;;;;;1.50;1.40;;;8.70;99.90;;;;;;4879264;29;20274;-85
2021/12/14 06:21:11;;;;;;;2.53;1.57;;;8.70;99.90;;;;;;4870450;29;20196;-85
2021/12/14 06:23:39;;;;;;;1.17;1.07;;;8.70;99.90;;;;;;4878970;29;20607;-84
2021/12/14 06:26:05;;;;;;;0.70;0.70;;;8.60;99.90;;;;;;4883057;29;20184;-84
2021/12/14 06:28:31;;;;;;;1.60;1.40;;;8.70;99.90;;;;;;4872589;29;20240;-84
2021/12/14 06:30:58;;;;;;;0.87;0.87;;;8.70;99.90;;;;;;4879739;29;20188;-84
2021/12/14 06:33:29;;;;;;;0.50;0.50;;;8.80;99.90;;;;;;4881117;29;20288;-83
2021/12/14 06:35:58;;;;;;;2.20;2.00;;;8.90;99.90;;;;;;4877929;29;20190;-84
2021/12/14 06:38:33;;;;;;;0.83;0.73;;;8.90;99.90;;;;;;4878656;29;20642;-84
2021/12/14 06:41:07;;;;;;;0.73;0.63;;;8.90;99.90;;;;;;4878875;29;20613;-84
2021/12/14 06:43:38;;;;;;;0.30;0.30;;;9.00;99.90;;;;;;4875427;29;20205;-84
2021/12/14 06:46:08;;;;;;;0.30;0.30;;;8.90;99.90;;;;;;4874540;29;20931;-86
2021/12/14 06:48:38;;;;;;;0.70;0.70;;;8.90;99.90;;;;;;4879586;29;20209;-85
2021/12/14 06:51:05;;;;;;;0.73;0.70;;;9.00;99.90;;;;;;4878924;29;20275;-82
2021/12/14 06:53:32;;;;;;;0.73;0.70;;;9.00;99.90;;;;;;4879226;29;20936;-82
2021/12/14 06:56:01;;;;;;;1.47;1.37;;;9.00;99.90;;;;;;4881724;29;20202;-81
2021/12/14 06:58:31;;;;;;;0.77;0.77;;;9.00;99.90;;;;;;4879997;29;20244;-81
2021/12/14 07:01:07;;;;;;;1.77;1.67;;;8.90;99.90;;;;;;4876280;29;20188;-84
2021/12/14 07:04:01;;;;;;;0.90;0.90;;;8.90;99.90;;;;;;4879818;29;20193;-84
2021/12/14 07:06:31;;;;;;;0.70;0.70;;;9.00;99.90;;;;;;4861389;29;20343;-84
2021/12/14 07:09:16;;;;;;;1.30;0.93;;;9.10;99.90;;;;;;4880661;29;20295;-84
2021/12/14 07:11:47;;;;;;;1.33;1.07;;;9.10;99.90;;;;;;4876478;29;20210;-84
2021/12/14 07:14:42;;;;;;;1.13;1.03;;;9.00;99.90;;;;;;4875842;29;20190;-84
2021/12/14 07:17:16;;;;;;;2.80;1.30;;;9.00;99.90;;;;;;4857414;29;20240;-84
2021/12/14 07:19:51;;;;;;;1.30;1.20;;;9.00;99.90;;;;;;4878468;29;20212;-84
2021/12/14 07:22:28;;;;;;;1.57;1.03;;;9.10;99.90;;;;;;4887429;29;20322;-83
2021/12/14 07:25:07;;;;;;;1.10;1.00;;;9.10;99.90;;;;;;4874981;29;20607;-84
2021/12/14 07:27:43;;;;;;;2.20;0.83;;;9.10;99.90;;;;;;4875096;29;20217;-83
2021/12/14 07:30:18;;;;;;;1.73;0.97;;;9.10;99.90;;;;;;4872157;29;20203;-83
2021/12/14 07:33:06;;;;;;;0.57;0.40;;;9.10;99.90;;;;;;4891526;29;20607;-83
2021/12/14 07:35:51;;;;;;;1.43;1.00;;;9.20;99.90;;;;;;4875475;29;20189;-84
2021/12/14 07:38:23;;;;;;;1.63;1.00;;;9.20;99.90;;;;;;4878262;29;20222;-84
2021/12/14 07:41:09;;;;;;;0.43;0.43;;;9.30;99.90;;;;;;4883714;29;20187;-83
2021/12/14 07:43:47;;;;;;;0.67;0.60;;;9.30;99.90;;;;;;4876740;29;20265;-83
2021/12/14 07:46:35;;;;;;;1.03;0.80;;;9.20;99.90;;;;;;4878839;29;20612;-84
2021/12/14 07:49:04;;;;;;;2.40;0.90;;;9.30;99.90;;;;;;4874951;29;20211;-83
2021/12/14 07:51:33;;;;;;;0.47;0.40;;;9.30;99.90;;;;;;4867797;29;20181;-81
2021/12/14 07:54:13;;;;;;;1.90;0.40;;;9.40;99.90;;;;;;4873621;29;20247;-81
2021/12/14 07:56:49;;;;;;;0.83;0.73;;;9.40;99.90;;;;;;4871156;29;20197;-82
2021/12/14 07:59:26;;;;;;;0.70;0.70;;;9.40;99.90;;;;;;4879552;29;20251;-82
2021/12/14 08:02:13;;;;;;;1.83;1.20;;;9.40;99.90;;;;;;4876234;29;20679;-82
2021/12/14 08:04:41;;;;;;;0.67;0.67;;;9.40;99.90;;;;;;4876474;29;20657;-81
2021/12/14 08:07:07;;;;;;;1.60;0.93;;;9.40;99.90;;;;;;4879796;29;20183;-80
2021/12/14 08:09:48;;;;;;;1.43;0.87;;;9.40;99.90;;;;;;4832862;29;1167077;-81
2021/12/14 08:12:39;;;;;;;1.20;1.00;;;9.40;99.90;;;;;;4872887;29;20331;-81
2021/12/14 08:15:38;;;;;;;1.10;1.03;;;9.50;99.90;;;;;;4876229;29;20179;-82
2021/12/14 08:18:12;;;;;;;0.50;0.50;;;9.40;99.90;;;;;;4882009;29;20701;-81
2021/12/14 08:20:46;;;;;;;1.23;0.87;;;9.40;99.90;;;;;;4892730;29;20189;-81
2021/12/14 08:23:17;;;;;;;0.47;0.47;;;9.40;99.90;;;;;;4883209;29;20206;-81
2021/12/14 08:25:42;;;;;;;0.53;0.47;;;9.40;99.90;;;;;;4881394;29;20200;-81
2021/12/14 08:28:09;;;;;;;2.00;0.77;;;9.40;99.90;;;;;;4884595;29;20213;-82
2021/12/14 08:30:39;;;;;;;1.10;0.83;;;9.40;99.90;;;;;;4883395;29;20198;-82
2021/12/14 08:33:21;;;;;;;1.47;1.17;;;9.40;99.90;;;;;;4889177;29;20219;-81
2021/12/14 08:35:47;;;;;;;1.30;0.90;;;9.50;99.90;;;;;;4882469;29;20628;-81
2021/12/14 08:38:15;;;;;;;1.13;1.03;;;9.50;99.90;;;;;;4883439;29;20597;-82
2021/12/14 08:40:47;;;;;;;0.67;0.53;;;9.50;99.90;;;;;;4894115;29;20201;-81
2021/12/14 08:43:23;;;;;;;0.43;0.43;;;9.50;99.90;;;;;;4881463;29;20197;-81
2021/12/14 08:45:58;;;;;;;1.00;1.00;;;9.50;99.90;;;;;;4882354;29;20210;-81
2021/12/14 08:48:30;;;;;;;1.03;0.93;;;9.50;99.90;;;;;;4882940;29;20211;-81
2021/12/14 08:50:58;;;;;;;0.53;0.53;;;9.50;99.90;;;;;;4882268;29;20183;-81
2021/12/14 08:53:27;;;;;;;0.87;0.50;;;9.60;99.90;;;;;;4883116;29;20196;-81
2021/12/14 08:55:57;;;;;;;0.93;0.93;;;9.60;99.90;;;;;;4882139;29;20200;-82
2021/12/14 08:58:25;;;;;;;0.60;0.53;;;9.70;99.90;;;;;;4878686;29;20642;-81
2021/12/14 09:00:56;;;;;;;1.37;0.80;;;9.60;99.90;;;;;;4879430;29;20195;-81
2021/12/14 09:03:32;;;;;;;0.60;0.60;;;9.70;99.90;;;;;;4888699;29;20274;-81
2021/12/14 09:06:07;;;;;;;0.93;0.90;;;9.60;99.90;;;;;;4878789;29;20188;-81
2021/12/14 09:08:34;;;;;;;0.10;0.10;;;9.60;99.90;;;;;;4874704;29;20211;-80
2021/12/14 09:11:01;;;;;;;0.50;0.50;;;9.60;99.90;;;;;;4871977;29;20277;-80
2021/12/14 09:13:28;;;;;;;0.30;0.30;;;9.60;99.90;;;;;;4877130;29;20193;-81
2021/12/14 09:15:58;;;;;;;3.60;1.33;;;9.60;99.90;;;;;;4880722;29;20197;-81
2021/12/14 09:18:26;;;;;;;1.03;0.80;;;9.60;99.90;;;;;;4877792;29;20727;-81
2021/12/14 09:21:06;;;;;;;0.30;0.30;;;9.60;99.90;;;;;;4875096;29;20193;-82
2021/12/14 09:23:37;;;;;;;0.50;0.50;;;9.50;99.90;;;;;;4874772;29;20327;-81
2021/12/14 09:26:07;;;;;;;1.27;1.10;;;9.60;99.90;;;;;;4874797;29;20178;-81
2021/12/14 09:28:35;;;;;;;1.60;0.83;;;9.60;99.90;;;;;;4876356;29;20704;-82
2021/12/14 09:31:08;;;;;;;1.53;1.37;;;9.50;99.90;;;;;;4879499;29;20214;-81
2021/12/14 09:33:38;;;;;;;0.67;0.67;;;9.50;99.90;;;;;;4877169;29;20718;-82
2021/12/14 09:36:11;;;;;;;1.47;0.73;;;9.50;99.90;;;;;;4877985;29;20264;-81
2021/12/14 09:38:40;;;;;;;0.93;0.90;;;9.50;99.90;;;;;;4875488;29;20570;-80
2021/12/14 09:41:11;;;;;;;0.60;0.53;;;9.60;99.90;;;;;;4882078;29;20183;-80
2021/12/14 09:43:38;;;;;;;1.83;1.20;;;9.60;99.90;;;;;;4872355;29;20193;-81
2021/12/14 09:46:06;;;;;;;0.90;0.90;;;9.70;99.90;;;;;;4881992;29;20192;-82
2021/12/14 09:48:36;;;;;;;0.60;0.60;;;9.70;99.90;;;;;;4880058;29;20225;-81
2021/12/14 09:51:07;;;;;;;0.70;0.70;;;9.70;99.90;;;;;;4885645;29;20674;-80
2021/12/14 09:53:38;;;;;;;3.70;1.50;;;9.60;99.90;;;;;;4888944;29;20195;-81
2021/12/14 09:56:04;;;;;;;1.37;1.20;;;9.50;99.90;;;;;;4879912;29;20219;-81
2021/12/14 09:58:35;;;;;;;0.80;0.80;;;9.50;99.90;;;;;;4879784;29;20223;-81
2021/12/14 10:01:31;;;;;;;2.03;0.83;;;9.40;99.90;;;;;;4882459;29;20203;-81
2021/12/14 10:04:00;;;;;;;1.93;0.80;;;9.40;99.90;;;;;;4880208;29;20185;-82
2021/12/14 10:06:30;;;;;;;1.00;0.90;;;9.40;99.90;;;;;;4885776;29;20192;-81
2021/12/14 10:09:03;;;;;;;1.37;1.13;;;9.30;99.90;;;;;;4881157;29;20220;-81
2021/12/14 10:14:27;;;;;;;1.17;1.17;;;9.40;99.90;;;;;;4876341;29;20198;-82
2021/12/14 10:16:54;;;;;;;1.60;1.00;;;9.30;99.90;;;;;;4883798;29;20185;-82
2021/12/14 10:19:25;;;;;;;1.43;1.30;;;9.30;99.90;;;;;;4875519;29;20252;-81
2021/12/14 10:21:57;;;;;;;1.60;1.20;;;9.20;99.90;;;;;;4871377;29;20193;-81
2021/12/14 10:24:23;;;;;;;0.77;0.77;;;9.30;99.90;;;;;;4872683;29;20380;-80
2021/12/14 10:26:55;;;;;;;2.57;1.40;;;9.30;99.90;;;;;;4873557;29;20192;-81
2021/12/14 10:29:21;;;;;;;2.37;1.50;;;9.30;99.90;;;;;;4875017;29;20222;-81
2021/12/14 10:31:58;;;;;;;0.60;0.60;;;9.30;99.90;;;;;;4882945;29;20188;-81
2021/12/14 10:34:25;;;;;;;1.30;1.30;;;9.30;99.90;;;;;;4881240;29;20203;-81
2021/12/14 10:37:03;;;;;;;1.23;1.23;;;9.30;99.90;;;;;;4884156;29;20191;-82
2021/12/14 10:44:51;;;;;;;1.60;1.43;;;9.40;99.90;;;;;;4882183;29;20257;-81
2021/12/14 10:47:19;;;;;;;1.40;1.17;;;9.40;99.90;;;;;;4893054;29;20198;-81
2021/12/14 10:49:45;;;;;;;0.50;0.50;;;9.30;99.90;;;;;;4878788;29;20214;-81
2021/12/14 10:52:16;;;;;;;1.60;1.20;;;9.40;99.90;;;;;;4882130;29;20183;-81
2021/12/14 10:54:46;;;;;;;1.53;1.27;;;9.40;99.90;;;;;;4887799;29;20186;-81
2021/12/14 10:57:15;;;;;;;3.33;1.07;;;9.40;99.90;;;;;;4876699;29;20200;-82
2021/12/14 10:59:44;;;;;;;0.87;0.87;;;9.40;99.90;;;;;;4873356;29;20253;-84
2021/12/14 11:02:10;;;;;;;1.20;1.10;;;9.40;99.90;;;;;;4875616;29;20229;-84
2021/12/14 11:04:42;;;;;;;0.90;0.80;;;9.40;99.90;;;;;;4873659;29;20220;-84
2021/12/14 11:07:15;;;;;;;0.50;0.50;;;9.40;99.90;;;;;;4878167;29;20182;-84
2021/12/14 11:09:53;;;;;;;0.67;0.63;;;9.40;99.90;;;;;;4877875;29;20229;-85
2021/12/14 11:12:33;;;;;;;1.50;0.90;;;9.40;99.90;;;;;;4888190;29;20193;-84
2021/12/14 11:15:09;;;;;;;0.47;0.47;;;9.50;99.90;;;;;;4873332;29;20195;-85
2021/12/14 11:20:27;;;;;;;0.80;0.80;;;9.50;99.90;;;;;;4876844;29;20242;-84
2021/12/14 11:23:16;;;;;;;1.47;0.83;;;9.60;99.90;;;;;;4879534;29;20214;-84
2021/12/14 11:25:54;;;;;;;0.87;0.87;;;9.60;99.90;;;;;;4870968;29;20203;-84
2021/12/14 11:28:44;;;;;;;1.40;0.93;;;9.60;99.90;;;;;;4878622;29;20200;-84
2021/12/14 11:31:23;;;;;;;0.60;0.60;;;9.50;99.90;;;;;;4879457;29;20195;-84
2021/12/14 11:34:15;;;;;;;0.90;0.90;;;9.60;99.90;;;;;;4877843;29;20177;-84
2021/12/14 11:36:46;;;;;;;1.00;0.90;;;9.60;99.90;;;;;;4869633;29;20289;-83
2021/12/14 11:39:24;;;;;;;0.23;0.23;;;9.70;99.90;;;;;;4868759;29;20320;-84
2021/12/14 11:41:53;;;;;;;1.83;0.93;;;9.70;99.90;;;;;;4871798;29;20176;-84
2021/12/14 11:44:29;;;;;;;1.00;0.60;;;9.70;99.90;;;;;;4878357;29;20211;-83
2021/12/14 11:47:41;;;;;;;0.87;0.87;;;9.70;99.90;;;;;;4877463;29;20254;-85
2021/12/14 11:50:30;;;;;;;1.17;1.13;;;9.70;99.90;;;;;;4872933;29;20354;-84
2021/12/14 11:53:14;;;;;;;1.90;1.07;;;9.70;99.90;;;;;;4874024;29;20647;-84
2021/12/14 11:55:56;;;;;;;1.10;0.97;;;9.70;99.90;;;;;;4877652;29;20177;-84
2021/12/14 11:58:44;;;;;;;0.57;0.57;;;9.70;99.90;;;;;;4877368;29;20297;-85
2021/12/14 12:01:16;;;;;;;0.50;0.50;;;9.60;99.90;;;;;;4872670;29;20189;-84
2021/12/14 12:03:49;;;;;;;1.50;0.77;;;9.70;99.90;;;;;;4875135;29;20190;-84
2021/12/14 12:09:28;;;;;;;2.93;0.63;;;9.60;99.90;;;;;;4879554;29;20207;-82
2021/12/14 12:12:03;;;;;;;0.50;0.50;;;9.50;99.90;;;;;;4876050;29;20277;-83
2021/12/14 12:14:41;;;;;;;0.77;0.77;;;9.30;99.90;;;;;;4877327;29;20197;-84
2021/12/14 12:17:30;;;;;;;0.57;0.40;;;9.60;99.90;;;;;;4877082;29;20187;-85
2021/12/14 12:20:00;;;;;;;0.83;0.83;;;9.70;99.90;;;;;;4876670;29;20216;-85
2021/12/14 12:22:35;;;;;;;0.33;0.33;;;9.50;99.90;;;;;;4875467;29;20235;-84
2021/12/14 12:25:03;;;;;;;1.27;0.60;;;9.40;99.90;;;;;;4871317;29;20655;-84
2021/12/14 12:27:36;;;;;;;0.60;0.60;;;9.40;99.90;;;;;;4888159;29;20195;-84
2021/12/14 12:30:20;;;;;;;0.60;0.60;;;9.30;99.90;;;;;;4877962;29;20257;-85
2021/12/14 12:32:46;;;;;;;0.63;0.50;;;9.40;99.90;;;;;;4872149;29;20183;-84
2021/12/14 12:35:53;;;;;;;0.10;0.10;;;9.40;99.90;;;;;;4881102;29;20185;-84
2021/12/14 12:38:25;;;;;;;0.83;0.63;;;9.40;99.90;;;;;;4878187;29;20225;-84
2021/12/14 12:41:03;;;;;;;1.00;0.40;;;9.40;99.90;;;;;;4871355;29;20561;-84
2021/12/14 12:43:41;;;;;;;0.63;0.30;;;9.40;99.90;;;;;;4877957;29;20677;-84
2021/12/14 12:46:13;;;;;;;0.23;0.23;;;9.10;99.90;;;;;;4865825;29;20187;-84
2021/12/14 12:48:43;;;;;;;0.30;0.30;;;9.30;99.90;;;;;;4874109;29;20208;-83
2021/12/14 12:51:09;;;;;;;0.33;0.27;;;9.40;99.90;;;;;;4884458;29;20182;-85
2021/12/14 12:53:36;;;;;;;0.20;0.20;;;9.60;99.90;;;;;;4877221;29;20562;-85
2021/12/14 12:56:08;;;;;;;0.40;0.40;;;9.60;99.90;;;;;;4869567;29;20189;-84
2021/12/14 12:58:34;;;;;;;0.47;0.47;;;9.50;99.90;;;;;;4872849;29;20222;-84
2021/12/14 13:01:00;;;;;;;0.67;0.57;;;9.50;99.90;;;;;;4875572;29;20261;-84
2021/12/14 13:03:35;;;;;;;1.40;1.20;;;9.60;99.90;;;;;;4875190;29;20188;-83
2021/12/14 13:06:03;;;;;;;0.23;0.23;;;9.60;99.90;;;;;;4876451;29;20191;-83
2021/12/14 13:08:39;;;;;;;0.40;0.40;;;9.70;99.90;;;;;;4874615;29;20220;-83
2021/12/14 13:11:13;;;;;;;0.40;0.40;;;9.50;99.90;;;;;;4871781;29;20228;-83
2021/12/14 13:13:42;;;;;;;0.10;0.10;;;9.40;99.90;;;;;;4879505;29;20943;-83
2021/12/14 13:16:10;;;;;;;0.50;0.50;;;9.30;99.90;;;;;;4873883;29;20291;-84
2021/12/14 13:18:38;;;;;;;0.20;0.20;;;9.40;99.90;;;;;;4891766;29;20307;-82
2021/12/14 13:21:18;;;;;;;0.20;0.20;;;9.40;99.90;;;;;;4878605;29;20175;-84
2021/12/14 13:24:01;;;;;;;0.20;0.20;;;9.40;99.90;;;;;;4877073;29;20194;-84
2021/12/14 13:26:42;;;;;;;0.20;0.20;;;9.50;99.90;;;;;;4877558;29;20180;-84
2021/12/14 13:29:16;;;;;;;0.23;0.23;;;9.50;99.90;;;;;;4878577;29;20266;-83
2021/12/14 13:31:50;;;;;;;0.30;0.30;;;9.60;99.90;;;;;;4874165;29;20276;-84
2021/12/14 13:34:33;;;;;;;0.53;0.37;;;9.50;99.90;;;;;;4875849;29;20187;-83
2021/12/14 13:36:59;;;;;;;1.70;0.33;;;9.50;99.90;;;;;;4873776;29;20727;-83
2021/12/14 13:39:28;;;;;;;0.20;0.13;;;9.50;99.90;;;;;;4880810;29;20590;-83
2021/12/14 13:42:12;;;;;;;0.20;0.20;;;9.30;99.90;;;;;;4880035;29;20234;-83
2021/12/14 13:44:42;;;;;;;0.37;0.33;;;9.40;99.90;;;;;;4881586;29;20173;-84
2021/12/14 13:47:11;;;;;;;1.27;0.70;;;9.50;99.90;;;;;;4879264;29;20181;-82
2021/12/14 13:49:40;;;;;;;0.10;0.10;;;9.40;99.90;;;;;;4870707;29;20225;-84
2021/12/14 13:52:08;;;;;;;0.10;0.10;;;9.40;99.90;;;;;;4881514;29;20538;-83
2021/12/14 13:55:03;;;;;;;0.33;0.30;;;9.40;99.90;;;;;;4880674;29;20562;-83
2021/12/14 13:57:31;;;;;;;0.13;0.13;;;9.40;99.90;;;;;;4880375;29;20190;-83
2021/12/14 14:00:00;;;;;;;0.30;0.30;;;9.30;99.90;;;;;;4873277;29;20202;-84
2021/12/14 14:02:26;;;;;;;0.73;0.50;;;9.20;99.90;;;;;;4876476;29;20247;-83
2021/12/14 14:04:52;;;;;;;0.27;0.27;;;9.20;99.90;;;;;;4881172;29;20218;-83
2021/12/14 14:07:18;;;;;;;0.50;0.50;;;9.20;99.90;;;;;;4877302;29;20783;-82
2021/12/14 14:09:44;;;;;;;0.30;0.30;;;9.10;99.90;;;;;;4879728;29;20229;-82
2021/12/14 14:12:13;;;;;;;0.40;0.40;;;9.00;99.90;;;;;;4873739;29;20181;-83